createdAt,value
2023-08-29T00:01:42.513Z,97174.63
2023-08-29T00:04:10.319Z,97170.59
2023-08-29T00:06:37.392Z,97169.75
2023-08-29T00:09:05.379Z,97168.56
2023-08-29T00:11:32.565Z,97174.56
2023-08-29T00:14:00.450Z,97166.81
2023-08-29T00:16:27.743Z,97173.44
2023-08-29T00:18:54.802Z,97170.94
2023-08-29T00:21:21.865Z,97167.91
2023-08-29T00:23:49.717Z,97169.38
2023-08-29T00:26:16.843Z,97164.53
2023-08-29T00:28:45.571Z,97169.13
2023-08-29T00:31:12.621Z,97165.59
2023-08-29T00:33:39.917Z,97161.03
2023-08-29T00:38:34.510Z,97159.78
2023-08-29T00:41:01.743Z,97163.72
2023-08-29T00:43:30.637Z,97154.56
2023-08-29T00:45:59.123Z,97154.97
2023-08-29T00:48:26.930Z,97136.50
2023-08-29T00:50:56.322Z,97139.75
2023-08-29T00:53:25.361Z,97147.56
2023-08-29T00:55:52.547Z,97144.34
2023-08-29T00:58:20.522Z,97147.13
2023-08-29T01:00:47.895Z,97142.13
2023-08-29T01:03:15.089Z,97143.41
2023-08-29T01:05:42.333Z,97140.84
2023-08-29T01:08:09.460Z,97135.03
2023-08-29T01:11:22.740Z,97122.91
2023-08-29T01:14:24.759Z,97122.19
2023-08-29T01:17:14.367Z,97121.03
2023-08-29T01:19:43.305Z,97123.56
2023-08-29T01:22:41.252Z,97123.75
2023-08-29T01:25:26.408Z,97128.09
2023-08-29T01:27:54.929Z,97115.47
2023-08-29T01:30:23.516Z,97117.84
2023-08-29T01:32:51.664Z,97119.91
2023-08-29T01:35:18.904Z,97111.03
2023-08-29T01:37:45.980Z,97111.50
2023-08-29T01:40:13.030Z,97112.88
2023-08-29T01:42:42.604Z,97112.03
2023-08-29T01:45:10.196Z,97112.63
2023-08-29T01:47:37.347Z,97116.31
2023-08-29T01:50:06.174Z,97121.16
2023-08-29T01:52:33.646Z,97129.06
2023-08-29T01:55:00.879Z,97121.09
2023-08-29T01:57:29.206Z,97111.94
2023-08-29T01:59:58.363Z,97117.63
2023-08-29T02:02:25.997Z,97117.56
2023-08-29T02:04:53.091Z,97114.88
2023-08-29T02:07:20.197Z,97113.88
2023-08-29T02:09:47.268Z,97119.09
2023-08-29T02:12:14.367Z,97121.03
2023-08-29T02:14:42.225Z,97125.59
2023-08-29T02:17:09.452Z,97130.69
2023-08-29T02:19:36.614Z,97122.84
2023-08-29T02:22:03.688Z,97124.34
2023-08-29T02:24:32.238Z,97122.72
2023-08-29T02:26:59.369Z,97126.81
2023-08-29T02:29:26.419Z,97118.50
2023-08-29T02:31:53.499Z,97126.41
2023-08-29T02:34:20.615Z,97138.44
2023-08-29T02:36:47.760Z,97133.69
2023-08-29T02:39:14.790Z,97133.06
2023-08-29T02:41:41.902Z,97133.69
2023-08-29T02:44:09.333Z,97132.97
2023-08-29T02:46:36.463Z,97130.56
2023-08-29T02:49:03.493Z,97126.56
2023-08-29T02:51:30.643Z,97122.41
2023-08-29T02:53:57.661Z,97123.38
2023-08-29T02:56:24.652Z,97125.09
2023-08-29T02:58:52.255Z,97122.81
2023-08-29T03:01:19.368Z,97120.50
2023-08-29T03:03:46.503Z,97119.94
2023-08-29T03:06:13.804Z,97118.53
2023-08-29T03:08:40.963Z,97107.75
2023-08-29T03:11:08.127Z,97104.91
2023-08-29T03:13:36.500Z,97108.97
2023-08-29T03:16:12.186Z,97109.03
2023-08-29T03:18:41.074Z,97104.44
2023-08-29T03:21:08.768Z,97114.72
2023-08-29T03:23:36.672Z,97109.00
2023-08-29T03:26:11.056Z,97108.72
2023-08-29T03:28:39.156Z,97113.63
2023-08-29T03:31:14.034Z,97114.66
2023-08-29T03:33:42.338Z,97112.56
2023-08-29T03:36:10.308Z,97110.13
2023-08-29T03:38:39.274Z,97113.03
2023-08-29T03:41:07.375Z,97114.97
2023-08-29T03:43:36.037Z,97118.00
2023-08-29T03:46:07.442Z,97115.63
2023-08-29T03:48:38.798Z,97113.25
2023-08-29T03:51:08.866Z,97114.16
2023-08-29T03:53:39.485Z,97109.94
2023-08-29T03:56:10.210Z,97105.72
2023-08-29T03:58:37.465Z,97113.03
2023-08-29T04:01:05.752Z,97109.88
2023-08-29T04:03:33.345Z,97114.34
2023-08-29T04:06:01.693Z,97105.59
2023-08-29T04:08:28.850Z,97113.19
2023-08-29T04:10:58.095Z,97107.66
2023-08-29T04:13:25.546Z,97109.94
2023-08-29T04:15:52.662Z,97112.19
2023-08-29T04:18:19.843Z,97120.09
2023-08-29T04:20:47.167Z,97114.13
2023-08-29T04:23:14.334Z,97111.38
2023-08-29T04:25:41.386Z,97103.47
2023-08-29T04:28:08.694Z,97109.25
2023-08-29T04:30:36.809Z,97109.16
2023-08-29T04:33:04.567Z,97107.75
2023-08-29T04:35:31.680Z,97116.69
2023-08-29T04:37:59.530Z,97116.56
2023-08-29T04:40:28.110Z,97110.81
2023-08-29T04:42:55.188Z,97115.25
2023-08-29T04:45:22.299Z,97110.00
2023-08-29T04:47:49.387Z,97112.00
2023-08-29T04:50:16.638Z,97108.59
2023-08-29T04:52:43.876Z,97113.25
2023-08-29T04:55:11.738Z,97109.94
2023-08-29T04:57:39.359Z,97109.47
2023-08-29T05:00:10.366Z,97109.00
2023-08-29T05:02:37.502Z,97110.97
2023-08-29T05:05:04.982Z,97104.25
2023-08-29T05:07:32.176Z,97110.75
2023-08-29T05:09:59.587Z,97109.91
2023-08-29T05:12:27.363Z,97108.06
2023-08-29T05:14:55.849Z,97113.44
2023-08-29T05:17:22.927Z,97108.03
2023-08-29T05:19:50.780Z,97115.25
2023-08-29T05:22:18.359Z,97109.31
2023-08-29T05:24:45.547Z,97118.75
2023-08-29T05:27:12.845Z,97123.53
2023-08-29T05:29:40.269Z,97126.25
2023-08-29T05:32:07.490Z,97118.69
2023-08-29T05:34:34.615Z,97114.00
2023-08-29T05:37:01.662Z,97115.03
2023-08-29T05:39:28.716Z,97116.91
2023-08-29T05:41:55.737Z,97112.50
2023-08-29T05:44:22.800Z,97119.97
2023-08-29T05:46:49.970Z,97116.28
2023-08-29T05:49:17.043Z,97117.84
2023-08-29T05:51:44.038Z,97123.63
2023-08-29T05:54:11.328Z,97117.34
2023-08-29T05:56:39.222Z,97113.72
2023-08-29T05:59:06.397Z,97107.19
2023-08-29T06:01:34.670Z,97114.59
2023-08-29T06:04:01.881Z,97118.88
2023-08-29T06:06:29.036Z,97125.13
2023-08-29T06:08:56.121Z,97110.38
2023-08-29T06:11:23.352Z,97114.31
2023-08-29T06:13:52.552Z,97120.28
2023-08-29T06:16:20.007Z,97121.06
2023-08-29T06:18:48.775Z,97114.66
2023-08-29T06:21:15.922Z,97111.22
2023-08-29T06:23:43.429Z,97114.28
2023-08-29T06:26:10.606Z,97120.06
2023-08-29T06:28:38.831Z,97116.38
2023-08-29T06:31:08.608Z,97120.44
2023-08-29T06:33:37.072Z,97133.03
2023-08-29T06:36:04.440Z,97131.63
2023-08-29T06:38:33.494Z,97130.63
2023-08-29T06:41:04.259Z,97123.66
2023-08-29T06:43:31.689Z,97128.31
2023-08-29T06:45:58.986Z,97123.28
2023-08-29T06:48:26.249Z,97127.72
2023-08-29T06:50:53.362Z,97129.13
2023-08-29T06:53:20.484Z,97129.41
2023-08-29T06:55:48.281Z,97129.94
2023-08-29T06:58:15.379Z,97125.00
2023-08-29T07:00:42.654Z,97128.25
2023-08-29T07:03:09.875Z,97116.78
2023-08-29T07:05:37.204Z,97118.16
2023-08-29T07:08:05.734Z,97115.75
2023-08-29T07:10:33.224Z,97119.91
2023-08-29T07:13:00.349Z,97130.53
2023-08-29T07:15:27.560Z,97121.47
2023-08-29T07:17:55.290Z,97126.81
2023-08-29T07:20:22.693Z,97122.00
2023-08-29T07:22:49.891Z,97122.88
2023-08-29T07:25:21.207Z,97123.22
2023-08-29T07:27:48.428Z,97120.63
2023-08-29T07:30:16.386Z,97117.56
2023-08-29T07:32:44.878Z,97115.34
2023-08-29T07:35:12.084Z,97113.16
2023-08-29T07:37:39.367Z,97112.69
2023-08-29T07:40:07.083Z,97118.31
2023-08-29T07:42:34.335Z,97112.97
2023-08-29T07:45:01.520Z,97112.88
2023-08-29T07:47:28.683Z,97116.47
2023-08-29T07:49:55.805Z,97112.03
2023-08-29T07:52:22.916Z,97108.31
2023-08-29T07:54:50.040Z,97109.63
2023-08-29T07:57:17.179Z,97112.25
2023-08-29T07:59:44.401Z,97108.63
2023-08-29T08:02:11.562Z,97102.63
2023-08-29T08:04:38.709Z,97100.78
2023-08-29T08:07:06.832Z,97099.81
2023-08-29T08:09:34.496Z,97103.31
2023-08-29T08:12:03.451Z,97105.13
2023-08-29T08:14:30.630Z,97113.03
2023-08-29T08:16:57.827Z,97121.28
2023-08-29T08:19:25.638Z,97110.28
2023-08-29T08:21:52.954Z,97118.19
2023-08-29T08:24:20.085Z,97109.00
2023-08-29T08:26:47.382Z,97104.66
2023-08-29T08:29:14.605Z,97095.41
2023-08-29T08:31:41.834Z,97093.38
2023-08-29T08:34:08.927Z,97095.09
2023-08-29T08:36:36.128Z,97093.78
2023-08-29T08:39:05.086Z,97090.09
2023-08-29T08:41:32.991Z,97101.28
2023-08-29T08:44:05.535Z,97098.09
2023-08-29T08:46:34.709Z,97090.28
2023-08-29T08:49:03.289Z,97088.72
2023-08-29T08:51:32.045Z,97101.91
2023-08-29T08:53:59.554Z,97104.66
2023-08-29T08:56:28.276Z,97097.72
2023-08-29T08:58:55.876Z,97099.09
2023-08-29T09:01:23.065Z,97098.31
2023-08-29T09:03:51.044Z,97088.34
2023-08-29T09:06:18.471Z,97098.81
2023-08-29T09:08:45.949Z,97090.78
2023-08-29T09:11:13.156Z,97095.13
2023-08-29T09:13:47.799Z,97098.00
2023-08-29T09:16:15.530Z,97097.47
2023-08-29T09:18:46.338Z,97097.56
2023-08-29T09:21:22.883Z,97089.78
2023-08-29T09:23:51.591Z,97105.88
2023-08-29T09:26:19.486Z,97102.78
2023-08-29T09:28:47.884Z,97110.75
2023-08-29T09:31:17.590Z,97110.50
2023-08-29T09:33:44.880Z,97109.69
2023-08-29T09:36:12.184Z,97104.94
2023-08-29T09:38:42.036Z,97102.00
2023-08-29T09:41:18.567Z,97098.78
2023-08-29T09:43:49.354Z,97087.44
2023-08-29T10:18:01.167Z,97066.88
2023-08-29T10:20:29.632Z,97067.59
2023-08-29T10:22:57.131Z,97064.63
2023-08-29T10:25:25.284Z,97064.91
2023-08-29T10:27:52.612Z,97065.78
2023-08-29T10:30:19.927Z,97069.06
2023-08-29T10:32:47.768Z,97071.66
2023-08-29T10:35:24.044Z,97063.03
2023-08-29T10:37:55.589Z,97069.72
2023-08-29T10:40:23.088Z,97057.31
2023-08-29T10:42:55.767Z,97049.13
2023-08-29T10:45:42.359Z,97057.94
2023-08-29T10:48:10.151Z,97062.88
2023-08-29T10:50:38.642Z,97058.66
2023-08-29T10:53:06.099Z,97064.38
2023-08-29T10:55:36.014Z,97052.88
2023-08-29T10:58:34.096Z,97053.72
2023-08-29T11:01:01.250Z,97058.16
2023-08-29T11:03:53.815Z,97051.44
2023-08-29T11:06:25.840Z,97056.19
2023-08-29T11:09:18.225Z,97049.94
2023-08-29T11:11:45.438Z,97044.59
2023-08-29T11:14:12.788Z,97048.88
2023-08-29T11:17:11.337Z,97049.28
2023-08-29T11:19:40.077Z,97043.81
2023-08-29T11:22:09.513Z,97036.56
2023-08-29T11:24:36.775Z,97042.56
2023-08-29T11:27:03.967Z,97039.63
2023-08-29T11:29:37.970Z,97046.06
2023-08-29T11:32:05.486Z,97051.47
2023-08-29T11:34:36.589Z,97050.06
2023-08-29T11:37:03.882Z,97049.31
2023-08-29T11:39:31.020Z,97051.13
2023-08-29T11:42:17.247Z,97050.38
2023-08-29T11:45:15.707Z,97047.97
2023-08-29T11:47:32.806Z,97040.44
2023-08-29T11:50:00.064Z,97043.53
2023-08-29T11:52:27.253Z,97047.41
2023-08-29T11:54:55.247Z,97045.59
2023-08-29T11:57:22.462Z,97058.47
2023-08-29T11:59:52.318Z,97061.03
2023-08-29T12:02:22.552Z,97054.97
2023-08-29T12:04:57.924Z,97048.31
2023-08-29T12:07:31.403Z,97046.59
2023-08-29T12:10:07.803Z,97051.25
2023-08-29T12:12:39.685Z,97057.75
2023-08-29T12:15:12.003Z,97051.13
2023-08-29T12:17:41.888Z,97049.44
2023-08-29T12:20:14.963Z,97048.31
2023-08-29T12:22:47.882Z,97042.75
2023-08-29T12:25:15.595Z,97050.94
2023-08-29T12:27:45.513Z,97042.53
2023-08-29T12:30:15.754Z,97038.56
2023-08-29T12:32:48.530Z,97030.03
2023-08-29T12:35:18.349Z,97028.03
2023-08-29T12:37:45.710Z,97018.75
2023-08-29T12:40:14.192Z,97029.63
2023-08-29T12:42:43.245Z,97029.41
2023-08-29T12:45:11.199Z,97021.97
2023-08-29T12:47:39.397Z,97020.88
2023-08-29T12:50:07.635Z,97023.41
2023-08-29T12:52:34.807Z,97007.63
2023-08-29T12:55:01.925Z,97008.22
2023-08-29T12:57:29.063Z,97003.47
2023-08-29T12:59:56.211Z,97004.31
2023-08-29T13:02:23.401Z,96996.78
2023-08-29T13:04:50.684Z,96990.44
2023-08-29T13:07:17.821Z,96980.97
2023-08-29T13:09:46.237Z,96988.97
2023-08-29T13:12:13.412Z,96976.69
2023-08-29T13:14:40.683Z,96996.75
2023-08-29T13:17:11.755Z,96998.13
2023-08-29T13:19:40.619Z,96991.69
2023-08-29T13:22:08.013Z,96987.97
2023-08-29T13:24:37.209Z,96986.41
2023-08-29T13:27:05.335Z,96983.47
2023-08-29T13:29:32.764Z,96980.59
2023-08-29T13:32:00.347Z,96980.97
2023-08-29T13:34:28.037Z,96968.88
2023-08-29T13:36:55.138Z,96982.28
2023-08-29T13:39:22.450Z,96972.50
2023-08-29T13:41:49.778Z,96978.03
2023-08-29T13:44:17.975Z,96968.78
2023-08-29T13:46:46.849Z,96978.25
2023-08-29T13:49:14.378Z,96968.44
2023-08-29T13:51:41.682Z,96962.69
2023-08-29T13:54:09.054Z,96963.09
2023-08-29T13:56:37.002Z,96966.69
2023-08-29T13:59:04.757Z,96971.53
2023-08-29T14:01:32.117Z,96971.63
2023-08-29T14:03:59.446Z,96967.00
2023-08-29T14:06:26.695Z,96964.06
2023-08-29T14:08:53.860Z,96969.00
2023-08-29T14:11:20.951Z,96959.91
2023-08-29T14:13:48.334Z,96964.56
2023-08-29T14:16:15.456Z,96959.22
2023-08-29T14:18:45.020Z,96954.97
2023-08-29T14:21:12.409Z,96952.22
2023-08-29T14:23:39.562Z,96961.50
2023-08-29T14:26:10.871Z,96959.53
2023-08-29T14:28:38.931Z,96957.63
2023-08-29T14:31:06.184Z,96963.84
2023-08-29T14:33:33.439Z,96965.53
2023-08-29T14:36:05.060Z,96958.75
2023-08-29T14:38:32.752Z,96951.00
2023-08-29T14:41:12.707Z,96949.53
2023-08-29T14:43:40.987Z,96951.38
2023-08-29T14:46:08.894Z,96950.75
2023-08-29T14:48:37.157Z,96948.38
2023-08-29T14:51:07.901Z,96943.97
2023-08-29T14:53:35.691Z,96938.44
2023-08-29T14:56:03.856Z,96937.81
2023-08-29T14:58:33.571Z,96933.06
2023-08-29T15:01:01.133Z,96942.53
2023-08-29T15:03:28.478Z,96934.84
2023-08-29T15:05:59.317Z,96938.56
2023-08-29T15:08:27.447Z,96944.47
2023-08-29T15:10:55.646Z,96943.41
2023-08-29T15:13:23.601Z,96945.41
2023-08-29T15:15:50.787Z,96942.53
2023-08-29T15:18:19.281Z,96944.13
2023-08-29T15:20:46.616Z,96942.53
2023-08-29T15:23:16.898Z,96937.38
2023-08-29T15:25:44.581Z,96936.97
2023-08-29T15:28:12.298Z,96932.50
2023-08-29T15:30:40.412Z,96929.50
2023-08-29T15:33:07.918Z,96928.69
2023-08-29T15:35:35.084Z,96940.31
2023-08-29T15:38:02.300Z,96931.19
2023-08-29T15:40:29.503Z,96934.56
2023-08-29T15:42:56.565Z,96930.41
2023-08-29T15:45:23.713Z,96930.59
2023-08-29T15:47:51.022Z,96931.06
2023-08-29T15:50:18.222Z,96944.75
2023-08-29T15:52:45.324Z,96937.13
2023-08-29T15:55:12.533Z,96941.09
2023-08-29T15:57:39.678Z,96938.19
2023-08-29T16:00:13.931Z,96941.94
2023-08-29T16:02:47.973Z,96935.41
2023-08-29T16:05:15.248Z,96932.09
2023-08-29T16:07:45.635Z,96930.31
2023-08-29T16:10:15.395Z,96929.19
2023-08-29T16:12:43.846Z,96932.91
2023-08-29T16:15:11.765Z,96935.53
2023-08-29T16:17:39.713Z,96934.75
2023-08-29T16:20:09.631Z,96929.78
2023-08-29T16:22:40.135Z,96940.56
2023-08-29T16:25:07.938Z,96935.41
2023-08-29T16:27:38.883Z,96942.50
2023-08-29T16:30:08.576Z,96941.75
2023-08-29T16:32:36.716Z,96938.53
2023-08-29T16:35:04.886Z,96937.75
2023-08-29T16:37:32.081Z,96927.84
2023-08-29T16:39:59.378Z,96926.09
2023-08-29T16:42:26.818Z,96933.00
2023-08-29T16:44:54.129Z,96931.66
2023-08-29T16:47:21.424Z,96922.81
2023-08-29T16:49:48.892Z,96929.78
2023-08-29T16:52:16.092Z,96925.47
2023-08-29T16:54:43.356Z,96931.75
2023-08-29T16:57:10.640Z,96921.41
2023-08-29T17:00:02.128Z,96917.31
2023-08-29T17:02:29.655Z,96924.06
2023-08-29T17:04:56.993Z,96913.25
2023-08-29T17:07:24.192Z,96913.06
2023-08-29T17:09:51.387Z,96915.97
2023-08-29T17:12:23.029Z,96917.34
2023-08-29T17:14:51.365Z,96912.59
2023-08-29T17:17:19.905Z,96918.84
2023-08-29T17:19:47.642Z,96927.59
2023-08-29T17:22:14.872Z,96925.47
2023-08-29T17:24:42.348Z,96925.13
2023-08-29T17:27:09.629Z,96920.38
2023-08-29T17:29:36.835Z,96926.94
2023-08-29T17:32:04.710Z,96927.69
2023-08-29T17:34:31.967Z,96930.72
2023-08-29T17:36:59.697Z,96934.56
2023-08-29T17:39:27.571Z,96928.59
2023-08-29T17:41:55.526Z,96932.91
2023-08-29T17:44:22.756Z,96937.16
2023-08-29T17:46:50.001Z,96940.44
2023-08-29T17:49:19.437Z,96938.13
2023-08-29T17:51:47.454Z,96935.56
2023-08-29T17:54:14.725Z,96937.31
2023-08-29T17:56:41.989Z,96933.75
2023-08-29T17:59:09.103Z,96927.22
2023-08-29T18:01:36.263Z,96926.06
2023-08-29T18:04:08.568Z,96923.53
2023-08-29T18:06:36.525Z,96924.69
2023-08-29T18:09:03.966Z,96927.63
2023-08-29T18:11:31.471Z,96930.19
2023-08-29T18:13:58.618Z,96937.97
2023-08-29T18:16:25.792Z,96936.44
2023-08-29T18:18:53.191Z,96929.84
2023-08-29T18:21:20.324Z,96936.63
2023-08-29T18:23:47.463Z,96945.56
2023-08-29T18:26:14.691Z,96938.72
2023-08-29T18:28:41.941Z,96940.31
2023-08-29T18:31:09.174Z,96935.31
2023-08-29T18:33:36.860Z,96934.38
2023-08-29T18:36:04.210Z,96938.38
2023-08-29T18:38:31.629Z,96934.66
2023-08-29T18:40:59.253Z,96934.81
2023-08-29T18:43:26.340Z,96931.38
2023-08-29T18:45:53.510Z,96930.91
2023-08-29T18:48:21.671Z,96928.84
2023-08-29T18:50:48.845Z,96917.78
2023-08-29T18:53:16.044Z,96918.38
2023-08-29T18:55:45.296Z,96927.56
2023-08-29T18:58:13.314Z,96927.34
2023-08-29T19:00:40.507Z,96928.16
2023-08-29T19:03:10.908Z,96927.59
2023-08-29T19:05:40.877Z,96928.16
2023-08-29T19:08:08.480Z,96928.69
2023-08-29T19:10:39.847Z,96932.16
2023-08-29T19:13:07.087Z,96925.09
2023-08-29T19:15:34.385Z,96926.19
2023-08-29T19:18:04.497Z,96930.50
2023-08-29T19:20:35.332Z,96929.38
2023-08-29T19:23:02.560Z,96932.06
2023-08-29T19:25:29.666Z,96931.75
2023-08-29T19:27:58.351Z,96935.56
2023-08-29T19:30:25.541Z,96924.75
2023-08-29T19:32:54.178Z,96926.88
2023-08-29T19:35:21.875Z,96928.75
2023-08-29T19:37:49.999Z,96927.16
2023-08-29T19:40:17.222Z,96923.59
2023-08-29T19:42:44.407Z,96938.34
2023-08-29T19:45:11.646Z,96925.19
2023-08-29T19:47:38.789Z,96927.88
2023-08-29T19:50:06.342Z,96927.88
2023-08-29T19:52:33.514Z,96923.16
2023-08-29T19:55:01.237Z,96928.75
2023-08-29T19:57:28.417Z,96929.00
2023-08-29T19:59:55.480Z,96933.31
2023-08-29T20:02:22.563Z,96939.16
2023-08-29T20:04:49.713Z,96932.97
2023-08-29T20:07:16.798Z,96931.28
2023-08-29T20:09:43.948Z,96930.81
2023-08-29T20:12:11.073Z,96924.63
2023-08-29T20:14:38.345Z,96926.25
2023-08-29T20:17:06.538Z,96927.63
2023-08-29T20:19:34.441Z,96940.75
2023-08-29T20:22:01.620Z,96929.09
2023-08-29T20:24:28.724Z,96928.66
2023-08-29T20:26:55.927Z,96928.66
2023-08-29T20:29:23.162Z,96933.50
2023-08-29T20:31:50.474Z,96938.88
2023-08-29T20:34:17.988Z,96938.34
2023-08-29T20:36:49.046Z,96942.38
2023-08-29T20:39:16.727Z,96939.44
2023-08-29T20:41:43.824Z,96938.38
2023-08-29T20:44:11.132Z,96939.72
2023-08-29T20:46:38.301Z,96946.44
2023-08-29T20:49:05.738Z,96940.25
2023-08-29T20:51:34.727Z,96941.63
2023-08-29T20:54:02.009Z,96946.16
2023-08-29T20:56:29.305Z,96940.00
2023-08-29T20:58:56.461Z,96939.19
2023-08-29T21:01:24.922Z,96947.53
2023-08-29T21:03:52.473Z,96934.03
2023-08-29T21:06:19.861Z,96937.53
2023-08-29T21:08:47.066Z,96936.19
2023-08-29T21:11:14.163Z,96937.81
2023-08-29T21:13:41.348Z,96937.56
2023-08-29T21:16:08.546Z,96938.91
2023-08-29T21:18:35.602Z,96938.94
2023-08-29T21:21:04.043Z,96939.44
2023-08-29T21:23:31.248Z,96937.81
2023-08-29T21:25:58.799Z,96931.63
2023-08-29T21:28:27.657Z,96934.88
2023-08-29T21:30:55.952Z,96927.34
2023-08-29T21:33:24.285Z,96929.78
2023-08-29T21:35:52.236Z,96926.53
2023-08-29T21:38:20.080Z,96922.22
2023-08-29T21:40:47.524Z,96928.94
2023-08-29T21:43:22.549Z,96920.34
2023-08-29T21:45:55.104Z,96914.72
2023-08-29T21:48:24.381Z,96920.63
2023-08-29T21:50:53.516Z,96924.13
2023-08-29T21:53:20.961Z,96922.22
2023-08-29T21:55:48.095Z,96916.84
2023-08-29T21:58:20.191Z,96931.38
2023-08-29T22:00:55.054Z,96924.91
2023-08-29T22:03:23.987Z,96931.09
2023-08-29T22:05:51.361Z,96916.28
2023-08-29T22:08:20.222Z,96920.59
2023-08-29T22:10:48.246Z,96919.81
2023-08-29T22:13:15.745Z,96918.19
2023-08-29T22:15:42.985Z,96919.53
2023-08-29T22:18:10.662Z,96911.72
2023-08-29T22:20:38.611Z,96915.50
2023-08-29T22:23:05.739Z,96910.63
2023-08-29T22:25:32.929Z,96909.84
2023-08-29T22:28:00.091Z,96911.72
2023-08-29T22:30:27.600Z,96912.53
2023-08-29T22:32:54.834Z,96911.47
2023-08-29T22:35:22.220Z,96910.09
2023-08-29T22:37:49.428Z,96913.06
2023-08-29T22:40:17.084Z,96913.06
2023-08-29T22:42:45.621Z,96922.75
2023-08-29T22:45:14.721Z,96916.31
2023-08-29T22:47:42.413Z,96920.06
2023-08-29T22:50:09.820Z,96924.63
2023-08-29T22:52:40.037Z,96921.13
2023-08-29T22:55:07.799Z,96914.72
2023-08-29T22:57:35.170Z,96912.25
2023-08-29T23:00:02.392Z,96914.94
2023-08-29T23:02:29.616Z,96923.03
2023-08-29T23:04:56.755Z,96916.03
2023-08-29T23:07:23.947Z,96907.16
2023-08-29T23:09:51.068Z,96921.94
2023-08-29T23:12:18.251Z,96923.81
2023-08-29T23:14:45.348Z,96920.88
2023-08-29T23:17:13.405Z,96919.28
2023-08-29T23:19:45.453Z,96920.59
2023-08-29T23:22:12.729Z,96925.63
2023-08-29T23:24:39.954Z,96912.53
2023-08-29T23:27:07.466Z,96912.53
2023-08-29T23:29:37.487Z,96914.16
2023-08-29T23:32:05.783Z,96912.19
2023-08-29T23:34:33.143Z,96911.88
2023-08-29T23:37:00.327Z,96912.44
2023-08-29T23:39:27.444Z,96916.22
2023-08-29T23:41:54.640Z,96912.25
2023-08-29T23:44:21.793Z,96916.56
2023-08-29T23:46:49.076Z,96919.53
2023-08-29T23:49:16.237Z,96919.50
2023-08-29T23:51:43.353Z,96915.22
2023-08-29T23:54:10.513Z,96914.97
2023-08-29T23:56:37.674Z,96916.59
2023-08-29T23:59:05.320Z,96917.09
